createdAt,value
2023-03-23T15:59:58.806Z,47.90
2023-03-23T16:02:26.909Z,48.14
2023-03-23T16:04:54.987Z,46.55
2023-03-23T16:07:25.355Z,46.62
2023-03-23T16:09:53.268Z,46.78
2023-03-23T16:12:21.204Z,46.82
2023-03-23T16:14:50.533Z,46.51
2023-03-23T16:17:21.817Z,46.05
2023-03-23T16:19:50.025Z,46.53
2023-03-23T16:22:18.763Z,45.80
2023-03-23T16:24:47.173Z,45.71
2023-03-23T16:27:16.054Z,46.36
2023-03-23T16:30:02.113Z,46.31
2023-03-23T16:34:59.478Z,46.81
2023-03-23T16:37:27.480Z,47.70
2023-03-23T16:39:55.355Z,47.81
2023-03-23T16:42:23.357Z,48.96
2023-03-23T16:44:51.957Z,49.29
2023-03-23T16:47:23.304Z,50.06
2023-03-23T16:49:52.746Z,51.10
2023-03-23T16:52:21.001Z,52.71
2023-03-23T16:54:48.903Z,53.60
2023-03-23T16:57:18.419Z,54.77
2023-03-23T16:59:46.565Z,54.95
2023-03-23T17:02:14.505Z,55.78
2023-03-23T17:04:45.088Z,56.26
2023-03-23T17:07:15.386Z,56.84
2023-03-23T17:09:44.180Z,56.78
2023-03-23T17:12:12.224Z,58.05
2023-03-23T17:14:40.182Z,57.85
2023-03-23T17:17:10.125Z,58.70
2023-03-23T17:19:38.322Z,59.04
2023-03-23T17:22:06.546Z,59.81
2023-03-23T17:24:35.867Z,59.86
2023-03-23T17:27:03.791Z,60.89
2023-03-23T17:29:31.659Z,61.40
2023-03-23T17:31:59.591Z,61.23
2023-03-23T17:34:27.417Z,61.53
2023-03-23T17:36:55.386Z,61.24
2023-03-23T17:39:23.286Z,63.92
2023-03-23T17:41:52.513Z,64.39
2023-03-23T17:44:20.555Z,66.58
2023-03-23T17:46:48.512Z,67.16
2023-03-23T17:49:16.427Z,67.22
2023-03-23T17:51:44.622Z,67.85
2023-03-23T17:54:12.775Z,67.36
2023-03-23T17:56:40.781Z,69.64
2023-03-23T17:59:10.186Z,68.62
2023-03-23T18:01:38.129Z,66.85
2023-03-23T18:04:06.212Z,68.38
2023-03-23T18:06:34.070Z,68.97
2023-03-23T18:09:03.526Z,68.25
2023-03-23T18:11:31.500Z,68.61
2023-03-23T18:13:59.750Z,69.46
2023-03-23T18:16:29.116Z,67.73
2023-03-23T18:18:57.311Z,68.96
2023-03-23T18:21:26.087Z,68.45
2023-03-23T18:23:59.222Z,69.33
2023-03-23T18:26:29.396Z,69.17
2023-03-23T18:28:57.464Z,69.82
2023-03-23T18:31:25.892Z,69.41
2023-03-23T18:33:55.445Z,70.83
2023-03-23T18:36:25.844Z,70.59
2023-03-23T18:38:56.617Z,72.25
2023-03-23T18:41:24.883Z,75.35
2023-03-23T18:43:53.036Z,75.14
2023-03-23T18:46:21.098Z,75.21
2023-03-23T18:48:48.999Z,76.83
2023-03-23T18:51:18.250Z,78.12
2023-03-23T18:53:46.258Z,76.18
2023-03-23T18:56:16.012Z,76.39
2023-03-23T18:58:44.687Z,77.75
2023-03-23T19:01:15.031Z,75.83
2023-03-23T19:03:43.565Z,76.55
2023-03-23T19:06:16.647Z,75.76
2023-03-23T19:08:46.209Z,76.83
2023-03-23T19:11:14.394Z,76.32
2023-03-23T19:13:53.948Z,76.38
2023-03-23T19:16:26.698Z,76.62
2023-03-23T19:18:54.622Z,77.03
2023-03-23T19:21:25.583Z,77.36
2023-03-23T19:23:56.198Z,76.99
2023-03-23T19:26:25.907Z,77.19
2023-03-23T19:29:24.466Z,77.48
2023-03-23T19:31:43.999Z,76.99
2023-03-23T19:34:13.377Z,76.83
2023-03-23T19:36:41.317Z,77.40
2023-03-23T19:39:10.624Z,77.57
2023-03-23T19:41:38.586Z,76.92
2023-03-23T19:44:08.336Z,76.67
2023-03-23T19:46:36.393Z,77.15
2023-03-23T19:49:04.917Z,77.66
2023-03-23T19:51:32.743Z,77.30
2023-03-23T19:54:00.985Z,78.12
2023-03-23T19:56:31.048Z,77.69
2023-03-23T19:59:00.169Z,76.87
2023-03-23T20:01:29.242Z,78.00
2023-03-23T20:03:59.755Z,78.25
2023-03-23T20:06:29.617Z,77.17
2023-03-23T20:09:00.174Z,76.36
2023-03-23T20:11:31.327Z,78.88
2023-03-23T20:13:59.303Z,76.51
2023-03-23T20:16:27.377Z,75.90
2023-03-23T20:18:59.612Z,76.81
2023-03-23T20:21:28.709Z,75.74
2023-03-23T20:23:58.866Z,76.10
2023-03-23T20:26:29.329Z,77.35
2023-03-23T20:28:58.735Z,75.82
2023-03-23T20:31:28.358Z,76.28
2023-03-23T20:34:01.918Z,76.63
2023-03-23T20:36:34.769Z,76.35
2023-03-23T20:39:05.102Z,75.73
2023-03-23T20:41:35.998Z,75.70
2023-03-23T20:44:07.516Z,75.18
2023-03-23T20:46:36.493Z,76.71
2023-03-23T20:49:06.001Z,76.24
2023-03-23T20:51:34.171Z,75.79
2023-03-23T20:54:03.594Z,75.00
2023-03-23T20:56:31.574Z,75.00
2023-03-23T20:58:59.549Z,76.00
2023-03-23T21:01:29.007Z,76.00
2023-03-23T21:03:57.813Z,76.77
2023-03-23T21:06:28.490Z,74.97
2023-03-23T21:08:57.992Z,76.03
2023-03-23T21:11:27.552Z,74.81
2023-03-23T21:13:55.737Z,76.28
2023-03-23T21:16:24.736Z,75.74
2023-03-23T21:18:54.618Z,76.04
2023-03-23T21:21:22.738Z,76.25
2023-03-23T21:23:52.762Z,76.31
2023-03-23T21:26:23.226Z,76.04
2023-03-23T21:28:53.988Z,75.79
2023-03-23T21:31:26.778Z,76.14
2023-03-23T21:33:56.088Z,77.26
2023-03-23T21:36:24.721Z,76.97
2023-03-23T21:38:52.916Z,77.70
2023-03-23T21:41:21.206Z,77.51
2023-03-23T21:43:50.122Z,78.87
2023-03-23T21:46:19.205Z,77.93
2023-03-23T21:48:51.392Z,78.25
2023-03-23T21:51:23.724Z,79.43
2023-03-23T21:53:54.067Z,78.10
2023-03-23T21:56:23.802Z,77.71
2023-03-23T21:58:52.061Z,79.04
2023-03-23T22:01:20.641Z,79.94
2023-03-23T22:03:49.180Z,79.02
2023-03-23T22:06:23.337Z,78.44
2023-03-23T22:08:53.011Z,78.55
2023-03-23T22:11:23.767Z,78.89
2023-03-23T22:13:51.965Z,78.97
2023-03-23T22:16:21.174Z,78.85
2023-03-23T22:18:51.232Z,78.66
2023-03-23T22:21:23.102Z,78.67
2023-03-23T22:23:53.338Z,79.24
2023-03-23T22:26:21.914Z,79.77
2023-03-23T22:28:52.051Z,79.29
2023-03-23T22:31:22.072Z,79.84
2023-03-23T22:33:54.081Z,79.57
2023-03-23T22:36:23.425Z,79.18
2023-03-23T22:38:54.993Z,79.46
2023-03-23T22:41:25.081Z,80.23
2023-03-23T22:43:53.600Z,80.01
2023-03-23T22:46:22.133Z,80.36
2023-03-23T22:48:50.358Z,80.03
2023-03-23T22:51:19.986Z,79.94
2023-03-23T22:53:48.559Z,79.29
2023-03-23T22:56:19.053Z,80.34
2023-03-23T22:58:47.113Z,80.20
2023-03-23T23:01:18.377Z,79.52
2023-03-23T23:03:47.445Z,79.88
2023-03-23T23:06:17.660Z,79.77
2023-03-23T23:08:46.850Z,79.29
2023-03-23T23:11:18.429Z,79.25
2023-03-23T23:13:47.347Z,79.48
2023-03-23T23:16:17.919Z,79.88
2023-03-23T23:18:47.535Z,78.25
2023-03-23T23:21:18.205Z,78.60
2023-03-23T23:23:46.651Z,78.61
2023-03-23T23:26:17.771Z,77.38
2023-03-23T23:28:47.485Z,76.86
2023-03-23T23:31:26.185Z,77.13
2023-03-23T23:33:56.200Z,75.98
2023-03-23T23:36:27.991Z,76.11
2023-03-23T23:38:56.503Z,75.67
2023-03-23T23:41:26.065Z,76.56
2023-03-23T23:43:54.202Z,76.44
2023-03-23T23:46:22.370Z,75.76
2023-03-23T23:48:50.432Z,75.78
2023-03-23T23:51:18.711Z,76.87
2023-03-23T23:53:53.537Z,75.58
2023-03-23T23:56:22.910Z,75.70
2023-03-23T23:58:52.626Z,75.36
